Time,TemperatureF,DewpointF,PressureIn,WindDirection,WindDirectionDegrees,WindSpeedMPH,WindSpeedGustMPH,Humidity,HourlyPrecipIn,Conditions,Clouds,dailyrainin,SoftwareType,DateUTC
2013-08-18 00:01:00,64.9,63.4,30.14,ESE,105,0.0,1.0,95,0.01,,,0.00,WUHU216DAVISVP2,2013-08-18 04:01:00,
2013-08-18 00:06:00,64.9,63.4,30.15,ESE,104,0.0,1.0,95,0.01,,,0.00,WUHU216DAVISVP2,2013-08-18 04:06:00,
2013-08-18 00:11:00,64.9,63.4,30.15,ESE,104,1.0,1.0,95,0.00,,,0.00,WUHU216DAVISVP2,2013-08-18 04:11:00,
2013-08-18 00:16:00,64.9,63.4,30.15,ESE,105,0.0,1.0,95,0.00,,,0.00,WUHU216DAVISVP2,2013-08-18 04:16:00,
2013-08-18 00:21:00,64.8,63.3,30.15,ESE,105,0.0,1.0,95,0.00,,,0.00,WUHU216DAVISVP2,2013-08-18 04:21:00,
2013-08-18 00:26:00,64.8,63.3,30.15,ESE,104,0.0,1.0,95,0.01,,,0.01,WUHU216DAVISVP2,2013-08-18 04:26:00,
2013-08-18 00:31:00,64.7,63.2,30.15,ESE,104,0.0,1.0,95,0.01,,,0.01,WUHU216DAVISVP2,2013-08-18 04:31:00,
2013-08-18 00:36:00,64.7,63.2,30.15,ESE,104,0.0,1.0,95,0.02,,,0.02,WUHU216DAVISVP2,2013-08-18 04:36:00,
2013-08-18 00:41:00,64.6,63.1,30.15,ESE,105,0.0,1.0,95,0.02,,,0.02,WUHU216DAVISVP2,2013-08-18 04:41:00,
2013-08-18 00:46:00,64.5,63.0,30.15,ESE,104,0.0,1.0,95,0.03,,,0.03,WUHU216DAVISVP2,2013-08-18 04:46:00,
2013-08-18 00:51:00,64.5,63.0,30.15,ESE,104,1.0,1.0,95,0.04,,,0.04,WUHU216DAVISVP2,2013-08-18 04:51:00,
2013-08-18 00:56:00,64.5,63.0,30.15,ESE,105,0.0,1.0,95,0.06,,,0.06,WUHU216DAVISVP2,2013-08-18 04:56:00,
2013-08-18 01:01:00,64.5,63.0,30.14,ESE,104,0.0,1.0,95,0.09,,,0.09,WUHU216DAVISVP2,2013-08-18 05:01:00,
2013-08-18 01:06:00,64.5,63.0,30.15,ESE,105,0.0,1.0,95,0.10,,,0.10,WUHU216DAVISVP2,2013-08-18 05:06:00,
2013-08-18 01:11:00,64.5,63.0,30.15,WSW,246,1.0,1.0,95,0.11,,,0.11,WUHU216DAVISVP2,2013-08-18 05:11:00,
2013-08-18 01:16:00,64.5,63.0,30.15,WSW,250,0.0,1.0,95,0.11,,,0.11,WUHU216DAVISVP2,2013-08-18 05:16:00,
2013-08-18 01:21:00,64.5,63.0,30.14,NW,316,0.0,2.0,95,0.11,,,0.11,WUHU216DAVISVP2,2013-08-18 05:21:00,
2013-08-18 01:26:00,64.5,63.0,30.14,NW,316,0.0,2.0,95,0.10,,,0.11,WUHU216DAVISVP2,2013-08-18 05:26:00,
2013-08-18 01:31:00,64.5,63.3,30.14,NW,316,0.0,2.0,96,0.10,,,0.11,WUHU216DAVISVP2,2013-08-18 05:31:00,
2013-08-18 01:36:00,64.4,63.2,30.14,NW,316,0.0,2.0,96,0.09,,,0.11,WUHU216DAVISVP2,2013-08-18 05:36:00,
2013-08-18 01:41:00,64.4,63.2,30.14,NW,316,0.0,0.0,96,0.09,,,0.11,WUHU216DAVISVP2,2013-08-18 05:41:00,
2013-08-18 01:46:00,64.4,63.2,30.14,NW,316,0.0,0.0,96,0.08,,,0.11,WUHU216DAVISVP2,2013-08-18 05:46:00,
2013-08-18 01:51:00,64.4,63.2,30.14,NW,316,0.0,0.0,96,0.07,,,0.11,WUHU216DAVISVP2,2013-08-18 05:51:00,
2013-08-18 01:56:00,64.3,63.1,30.14,NW,316,0.0,0.0,96,0.05,,,0.11,WUHU216DAVISVP2,2013-08-18 05:56:00,
2013-08-18 02:01:00,64.2,63.0,30.13,NW,316,0.0,1.0,96,0.02,,,0.11,WUHU216DAVISVP2,2013-08-18 06:01:00,
2013-08-18 02:06:00,64.2,63.0,30.13,NW,316,0.0,1.0,96,0.00,,,0.11,WUHU216DAVISVP2,2013-08-18 06:06:00,
2013-08-18 02:11:00,64.2,63.0,30.13,NW,316,0.0,1.0,96,0.00,,,0.11,WUHU216DAVISVP2,2013-08-18 06:11:00,
2013-08-18 02:16:00,64.1,62.9,30.13,NW,316,0.0,1.0,96,0.00,,,0.11,WUHU216DAVISVP2,2013-08-18 06:16:00,
2013-08-18 02:21:00,64.1,62.9,30.13,NW,316,0.0,0.0,96,0.00,,,0.11,WUHU216DAVISVP2,2013-08-18 06:21:00,
2013-08-18 02:26:00,64.0,62.8,30.13,NW,316,0.0,0.0,96,0.00,,,0.11,WUHU216DAVISVP2,2013-08-18 06:26:00,
2013-08-18 02:31:00,64.0,62.8,30.13,NW,316,0.0,0.0,96,0.00,,,0.11,WUHU216DAVISVP2,2013-08-18 06:31:00,
2013-08-18 02:36:00,64.0,62.8,30.13,NW,316,0.0,0.0,96,0.00,,,0.11,WUHU216DAVISVP2,2013-08-18 06:36:00,
2013-08-18 02:41:00,63.9,62.7,30.13,NW,316,0.0,1.0,96,0.00,,,0.11,WUHU216DAVISVP2,2013-08-18 06:41:00,
2013-08-18 02:46:00,63.9,62.7,30.13,NW,316,0.0,1.0,96,0.00,,,0.11,WUHU216DAVISVP2,2013-08-18 06:46:00,
2013-08-18 02:51:00,63.8,62.6,30.14,NW,316,0.0,1.0,96,0.00,,,0.11,WUHU216DAVISVP2,2013-08-18 06:51:00,
2013-08-18 02:56:00,63.8,62.6,30.14,NW,316,0.0,1.0,96,0.00,,,0.11,WUHU216DAVISVP2,2013-08-18 06:56:00,
2013-08-18 03:01:00,63.8,62.6,30.14,NW,316,0.0,0.0,96,0.00,,,0.11,WUHU216DAVISVP2,2013-08-18 07:01:00,
2013-08-18 03:06:00,63.7,62.5,30.14,NW,316,0.0,0.0,96,0.00,,,0.11,WUHU216DAVISVP2,2013-08-18 07:06:00,
2013-08-18 03:11:00,63.7,62.5,30.13,NW,316,0.0,0.0,96,0.00,,,0.11,WUHU216DAVISVP2,2013-08-18 07:11:00,
2013-08-18 03:16:00,63.6,62.4,30.13,NW,316,0.0,0.0,96,0.00,,,0.11,WUHU216DAVISVP2,2013-08-18 07:16:00,
2013-08-18 03:21:00,63.6,62.4,30.14,NW,316,0.0,0.0,96,0.00,,,0.11,WUHU216DAVISVP2,2013-08-18 07:21:00,
2013-08-18 03:26:00,63.7,62.5,30.13,NW,316,0.0,0.0,96,0.00,,,0.11,WUHU216DAVISVP2,2013-08-18 07:26:00,
2013-08-18 03:31:00,63.6,62.4,30.13,NW,316,0.0,0.0,96,0.00,,,0.11,WUHU216DAVISVP2,2013-08-18 07:31:00,
2013-08-18 03:36:00,63.6,62.4,30.13,NW,316,0.0,0.0,96,0.00,,,0.11,WUHU216DAVISVP2,2013-08-18 07:36:00,
2013-08-18 03:41:00,63.5,62.3,30.13,NW,316,0.0,0.0,96,0.00,,,0.11,WUHU216DAVISVP2,2013-08-18 07:41:00,
2013-08-18 03:46:00,63.4,62.2,30.13,NW,316,0.0,0.0,96,0.00,,,0.11,WUHU216DAVISVP2,2013-08-18 07:46:00,
2013-08-18 03:51:00,63.5,62.3,30.13,NW,316,0.0,0.0,96,0.00,,,0.11,WUHU216DAVISVP2,2013-08-18 07:51:00,
2013-08-18 03:56:00,63.5,62.3,30.13,NW,316,0.0,0.0,96,0.00,,,0.11,WUHU216DAVISVP2,2013-08-18 07:56:00,
2013-08-18 04:01:00,63.4,62.2,30.13,NW,316,0.0,0.0,96,0.00,,,0.11,WUHU216DAVISVP2,2013-08-18 08:01:00,
2013-08-18 04:06:00,63.4,62.2,30.13,NW,316,0.0,0.0,96,0.00,,,0.11,WUHU216DAVISVP2,2013-08-18 08:06:00,
2013-08-18 04:11:00,63.4,62.2,30.13,NW,316,0.0,0.0,96,0.00,,,0.11,WUHU216DAVISVP2,2013-08-18 08:11:00,
2013-08-18 04:16:00,63.5,62.3,30.13,NW,316,0.0,0.0,96,0.00,,,0.11,WUHU216DAVISVP2,2013-08-18 08:16:00,
2013-08-18 04:21:00,63.5,62.3,30.14,NW,316,0.0,0.0,96,0.00,,,0.11,WUHU216DAVISVP2,2013-08-18 08:21:00,
2013-08-18 04:26:00,63.5,62.3,30.13,NW,316,0.0,0.0,96,0.00,,,0.11,WUHU216DAVISVP2,2013-08-18 08:26:00,
2013-08-18 04:31:00,63.6,62.4,30.13,NW,322,0.0,1.0,96,0.00,,,0.11,WUHU216DAVISVP2,2013-08-18 08:31:00,
2013-08-18 04:36:00,63.6,62.4,30.13,NW,322,0.0,1.0,96,0.00,,,0.11,WUHU216DAVISVP2,2013-08-18 08:36:00,
2013-08-18 04:41:00,63.5,62.3,30.13,NW,322,0.0,1.0,96,0.00,,,0.11,WUHU216DAVISVP2,2013-08-18 08:41:00,
2013-08-18 04:46:00,63.5,62.3,30.13,NW,321,0.0,1.0,96,0.00,,,0.11,WUHU216DAVISVP2,2013-08-18 08:46:00,
2013-08-18 04:51:00,63.5,62.3,30.13,NW,322,0.0,1.0,96,0.00,,,0.11,WUHU216DAVISVP2,2013-08-18 08:51:00,
2013-08-18 04:56:00,63.5,62.3,30.14,NW,322,0.0,1.0,96,0.00,,,0.11,WUHU216DAVISVP2,2013-08-18 08:56:00,
2013-08-18 05:01:00,63.5,62.3,30.13,NW,322,0.0,0.0,96,0.00,,,0.11,WUHU216DAVISVP2,2013-08-18 09:01:00,
2013-08-18 05:06:00,63.4,62.2,30.13,NW,322,0.0,0.0,96,0.00,,,0.11,WUHU216DAVISVP2,2013-08-18 09:06:00,
2013-08-18 05:11:00,63.4,62.2,30.13,NW,322,0.0,0.0,96,0.00,,,0.11,WUHU216DAVISVP2,2013-08-18 09:11:00,
2013-08-18 05:16:00,63.3,62.1,30.14,NW,322,0.0,0.0,96,0.00,,,0.11,WUHU216DAVISVP2,2013-08-18 09:16:00,
2013-08-18 05:21:00,63.3,62.1,30.14,NW,322,0.0,0.0,96,0.00,,,0.11,WUHU216DAVISVP2,2013-08-18 09:21:00,
2013-08-18 05:26:00,63.2,62.0,30.14,NW,321,0.0,0.0,96,0.00,,,0.11,WUHU216DAVISVP2,2013-08-18 09:26:00,
2013-08-18 05:31:00,63.2,62.0,30.14,NW,322,0.0,0.0,96,0.00,,,0.11,WUHU216DAVISVP2,2013-08-18 09:31:00,
2013-08-18 05:36:00,63.2,62.0,30.14,NW,322,0.0,0.0,96,0.00,,,0.11,WUHU216DAVISVP2,2013-08-18 09:36:00,
2013-08-18 05:41:00,63.2,62.0,30.14,NW,321,0.0,0.0,96,0.00,,,0.11,WUHU216DAVISVP2,2013-08-18 09:41:00,
2013-08-18 05:46:00,63.1,61.9,30.14,NW,322,0.0,0.0,96,0.00,,,0.11,WUHU216DAVISVP2,2013-08-18 09:46:00,
2013-08-18 05:51:00,63.1,61.9,30.14,NW,322,0.0,0.0,96,0.00,,,0.11,WUHU216DAVISVP2,2013-08-18 09:51:00,
2013-08-18 05:56:00,63.1,61.9,30.14,NW,322,0.0,0.0,96,0.00,,,0.11,WUHU216DAVISVP2,2013-08-18 09:56:00,
2013-08-18 06:01:00,63.1,61.9,30.14,NW,321,0.0,0.0,96,0.00,,,0.11,WUHU216DAVISVP2,2013-08-18 10:01:00,
2013-08-18 06:06:00,63.0,61.8,30.14,NW,322,0.0,0.0,96,0.00,,,0.11,WUHU216DAVISVP2,2013-08-18 10:06:00,
2013-08-18 06:11:00,63.0,61.8,30.14,NW,322,0.0,0.0,96,0.00,,,0.11,WUHU216DAVISVP2,2013-08-18 10:11:00,
2013-08-18 06:16:00,63.0,61.8,30.15,NW,321,0.0,0.0,96,0.00,,,0.11,WUHU216DAVISVP2,2013-08-18 10:16:00,
2013-08-18 06:21:00,63.0,61.8,30.15,NW,321,0.0,0.0,96,0.00,,,0.11,WUHU216DAVISVP2,2013-08-18 10:21:00,
2013-08-18 06:26:00,63.0,61.8,30.14,NW,322,0.0,0.0,96,0.00,,,0.11,WUHU216DAVISVP2,2013-08-18 10:26:00,
2013-08-18 06:31:00,63.0,61.8,30.14,NW,322,0.0,0.0,96,0.00,,,0.11,WUHU216DAVISVP2,2013-08-18 10:31:00,
2013-08-18 06:36:00,63.0,61.8,30.15,NW,321,0.0,0.0,96,0.00,,,0.11,WUHU216DAVISVP2,2013-08-18 10:36:00,
2013-08-18 06:41:00,62.9,61.7,30.15,NW,322,0.0,0.0,96,0.00,,,0.11,WUHU216DAVISVP2,2013-08-18 10:41:00,
2013-08-18 06:46:00,62.9,61.7,30.15,NW,322,0.0,0.0,96,0.00,,,0.11,WUHU216DAVISVP2,2013-08-18 10:46:00,
2013-08-18 06:51:00,62.8,61.6,30.15,NW,322,0.0,0.0,96,0.00,,,0.11,WUHU216DAVISVP2,2013-08-18 10:51:00,
2013-08-18 06:56:00,62.9,61.7,30.16,NW,322,0.0,0.0,96,0.00,,,0.11,WUHU216DAVISVP2,2013-08-18 10:56:00,
2013-08-18 07:01:00,63.0,61.8,30.16,NW,322,0.0,0.0,96,0.00,,,0.11,WUHU216DAVISVP2,2013-08-18 11:01:00,
2013-08-18 07:06:00,63.1,61.9,30.16,NW,322,0.0,0.0,96,0.00,,,0.11,WUHU216DAVISVP2,2013-08-18 11:06:00,
2013-08-18 07:11:00,63.1,61.9,30.16,NW,322,0.0,0.0,96,0.00,,,0.11,WUHU216DAVISVP2,2013-08-18 11:11:00,
2013-08-18 07:16:00,63.2,62.0,30.16,NW,322,0.0,0.0,96,0.00,,,0.11,WUHU216DAVISVP2,2013-08-18 11:16:00,
2013-08-18 07:21:00,63.2,62.0,30.16,NW,322,0.0,0.0,96,0.00,,,0.11,WUHU216DAVISVP2,2013-08-18 11:21:00,
2013-08-18 07:26:00,63.3,62.1,30.16,NW,322,0.0,0.0,96,0.00,,,0.11,WUHU216DAVISVP2,2013-08-18 11:26:00,
2013-08-18 07:31:00,63.4,62.2,30.16,NW,322,0.0,0.0,96,0.01,,,0.12,WUHU216DAVISVP2,2013-08-18 11:31:00,
2013-08-18 07:36:00,63.5,62.3,30.16,NW,322,0.0,0.0,96,0.02,,,0.13,WUHU216DAVISVP2,2013-08-18 11:36:00,
2013-08-18 07:41:00,63.6,62.4,30.16,NW,322,0.0,0.0,96,0.02,,,0.13,WUHU216DAVISVP2,2013-08-18 11:41:00,
2013-08-18 07:46:00,63.6,62.4,30.16,NW,322,0.0,0.0,96,0.02,,,0.13,WUHU216DAVISVP2,2013-08-18 11:46:00,
2013-08-18 07:51:00,63.7,62.5,30.16,NW,322,0.0,0.0,96,0.02,,,0.13,WUHU216DAVISVP2,2013-08-18 11:51:00,
2013-08-18 07:56:00,63.7,62.5,30.16,NW,322,0.0,0.0,96,0.02,,,0.13,WUHU216DAVISVP2,2013-08-18 11:56:00,
2013-08-18 08:01:00,63.9,62.7,30.16,NW,322,0.0,0.0,96,0.02,,,0.13,WUHU216DAVISVP2,2013-08-18 12:01:00,
2013-08-18 08:06:00,63.9,62.7,30.16,NW,322,0.0,0.0,96,0.02,,,0.13,WUHU216DAVISVP2,2013-08-18 12:06:00,
2013-08-18 08:11:00,64.3,62.8,30.16,NW,322,0.0,0.0,95,0.02,,,0.13,WUHU216DAVISVP2,2013-08-18 12:11:00,
2013-08-18 08:16:00,64.5,63.3,30.16,NW,322,0.0,0.0,96,0.02,,,0.13,WUHU216DAVISVP2,2013-08-18 12:16:00,
2013-08-18 08:21:00,64.7,63.5,30.16,NW,322,0.0,0.0,96,0.02,,,0.13,WUHU216DAVISVP2,2013-08-18 12:21:00,
2013-08-18 08:26:00,64.9,63.7,30.16,NW,322,0.0,0.0,96,0.02,,,0.13,WUHU216DAVISVP2,2013-08-18 12:26:00,
2013-08-18 08:31:00,65.0,63.8,30.16,NW,321,0.0,1.0,96,0.00,,,0.13,WUHU216DAVISVP2,2013-08-18 12:31:00,
2013-08-18 08:36:00,65.2,64.0,30.17,NW,323,0.0,1.0,96,0.00,,,0.13,WUHU216DAVISVP2,2013-08-18 12:36:00,
2013-08-18 08:41:00,65.6,64.4,30.17,NW,322,0.0,1.0,96,0.00,,,0.13,WUHU216DAVISVP2,2013-08-18 12:41:00,
2013-08-18 08:46:00,65.5,64.3,30.17,NW,321,0.0,1.0,96,0.00,,,0.13,WUHU216DAVISVP2,2013-08-18 12:46:00,
2013-08-18 08:51:00,65.4,64.2,30.16,East,84,1.8,2.0,96,0.00,,,0.13,WUHU216DAVISVP2,2013-08-18 12:51:00,
2013-08-18 08:56:00,65.5,64.0,30.16,SE,125,1.3,2.0,95,0.00,,,0.13,WUHU216DAVISVP2,2013-08-18 12:56:00,
2013-08-18 09:01:00,65.8,64.3,30.17,ESE,122,1.0,2.0,95,0.00,,,0.13,WUHU216DAVISVP2,2013-08-18 13:01:00,
2013-08-18 09:06:00,66.0,64.5,30.17,ESE,122,2.0,2.0,95,0.00,,,0.13,WUHU216DAVISVP2,2013-08-18 13:06:00,
2013-08-18 09:11:00,66.2,64.4,30.16,ESE,119,1.2,2.0,94,0.00,,,0.13,WUHU216DAVISVP2,2013-08-18 13:11:00,
2013-08-18 09:16:00,66.3,64.5,30.17,ESE,121,0.0,2.0,94,0.00,,,0.13,WUHU216DAVISVP2,2013-08-18 13:16:00,
2013-08-18 09:21:00,66.5,64.7,30.17,ESE,121,0.0,2.0,94,0.00,,,0.13,WUHU216DAVISVP2,2013-08-18 13:21:00,
2013-08-18 09:26:00,66.9,65.1,30.17,ESE,121,0.0,2.0,94,0.00,,,0.13,WUHU216DAVISVP2,2013-08-18 13:26:00,
2013-08-18 09:31:00,67.2,65.1,30.16,ESE,121,1.0,1.0,93,0.00,,,0.13,WUHU216DAVISVP2,2013-08-18 13:31:00,
2013-08-18 09:36:00,67.3,65.2,30.16,ESE,121,1.0,1.0,93,0.00,,,0.13,WUHU216DAVISVP2,2013-08-18 13:36:00,
2013-08-18 09:41:00,67.3,64.9,30.16,ESE,121,0.0,1.0,92,0.00,,,0.13,WUHU216DAVISVP2,2013-08-18 13:41:00,
2013-08-18 09:46:00,67.3,64.9,30.16,ESE,121,0.0,1.0,92,0.02,,,0.15,WUHU216DAVISVP2,2013-08-18 13:46:00,
2013-08-18 09:51:00,67.4,65.3,30.16,ESE,121,0.0,1.0,93,0.02,,,0.15,WUHU216DAVISVP2,2013-08-18 13:51:00,
2013-08-18 09:56:00,67.6,65.8,30.16,ESE,121,1.0,1.0,94,0.02,,,0.15,WUHU216DAVISVP2,2013-08-18 13:56:00,
2013-08-18 10:01:00,67.5,65.1,30.16,ESE,121,1.0,1.0,92,0.02,,,0.15,WUHU216DAVISVP2,2013-08-18 14:01:00,
2013-08-18 10:06:00,67.5,65.4,30.17,ESE,121,1.0,1.0,93,0.02,,,0.15,WUHU216DAVISVP2,2013-08-18 14:06:00,
2013-08-18 10:11:00,67.6,65.5,30.17,ESE,121,0.0,1.0,93,0.02,,,0.15,WUHU216DAVISVP2,2013-08-18 14:11:00,
2013-08-18 10:16:00,67.8,65.7,30.17,SE,128,1.0,1.0,93,0.02,,,0.15,WUHU216DAVISVP2,2013-08-18 14:16:00,
2013-08-18 10:21:00,67.8,65.7,30.17,SE,128,0.0,1.0,93,0.02,,,0.15,WUHU216DAVISVP2,2013-08-18 14:21:00,
2013-08-18 10:26:00,67.7,65.6,30.17,SE,128,1.0,1.0,93,0.02,,,0.15,WUHU216DAVISVP2,2013-08-18 14:26:00,
2013-08-18 10:31:00,67.7,65.3,30.17,SE,128,0.0,1.0,92,0.02,,,0.15,WUHU216DAVISVP2,2013-08-18 14:31:00,
2013-08-18 10:36:00,67.9,65.8,30.17,SE,128,0.0,1.0,93,0.02,,,0.15,WUHU216DAVISVP2,2013-08-18 14:36:00,
2013-08-18 10:41:00,68.0,65.9,30.17,SE,128,1.0,1.0,93,0.01,,,0.15,WUHU216DAVISVP2,2013-08-18 14:41:00,
2013-08-18 10:46:00,68.2,65.8,30.17,SE,128,0.0,1.0,92,0.00,,,0.15,WUHU216DAVISVP2,2013-08-18 14:46:00,
2013-08-18 10:51:00,68.5,66.1,30.17,SE,128,1.0,1.0,92,0.00,,,0.15,WUHU216DAVISVP2,2013-08-18 14:51:00,
2013-08-18 10:56:00,69.0,66.6,30.17,SE,128,1.0,1.0,92,0.00,,,0.15,WUHU216DAVISVP2,2013-08-18 14:56:00,
2013-08-18 11:01:00,69.4,66.3,30.17,WNW,285,2.0,2.0,90,0.00,,,0.15,WUHU216DAVISVP2,2013-08-18 15:01:00,
2013-08-18 11:06:00,69.6,66.2,30.17,East,79,1.0,2.0,89,0.00,,,0.15,WUHU216DAVISVP2,2013-08-18 15:06:00,
2013-08-18 11:11:00,69.8,66.4,30.17,WNW,282,1.0,2.0,89,0.00,,,0.15,WUHU216DAVISVP2,2013-08-18 15:11:00,
2013-08-18 11:16:00,70.1,66.7,30.17,WNW,291,1.0,2.0,89,0.00,,,0.15,WUHU216DAVISVP2,2013-08-18 15:16:00,
2013-08-18 11:21:00,70.4,66.7,30.17,WSW,249,1.2,2.0,88,0.00,,,0.15,WUHU216DAVISVP2,2013-08-18 15:21:00,
2013-08-18 11:26:00,70.7,67.6,30.17,West,267,1.2,2.0,90,0.00,,,0.15,WUHU216DAVISVP2,2013-08-18 15:26:00,
2013-08-18 11:31:00,70.8,67.4,30.17,WNW,301,1.7,3.0,89,0.00,,,0.15,WUHU216DAVISVP2,2013-08-18 15:31:00,
2013-08-18 11:36:00,70.8,66.7,30.16,West,276,1.0,3.0,87,0.00,,,0.15,WUHU216DAVISVP2,2013-08-18 15:36:00,
2013-08-18 11:41:00,71.3,67.6,30.16,West,275,1.4,3.0,88,0.00,,,0.15,WUHU216DAVISVP2,2013-08-18 15:41:00,
2013-08-18 11:46:00,71.5,67.4,30.17,WSW,243,1.4,3.0,87,0.00,,,0.15,WUHU216DAVISVP2,2013-08-18 15:46:00,
2013-08-18 11:51:00,71.7,67.3,30.17,West,271,4.0,4.0,86,0.00,,,0.15,WUHU216DAVISVP2,2013-08-18 15:51:00,
2013-08-18 11:56:00,71.7,68.0,30.17,West,268,1.4,4.0,88,0.00,,,0.15,WUHU216DAVISVP2,2013-08-18 15:56:00,
2013-08-18 12:01:00,71.7,67.6,30.17,West,265,1.4,4.0,87,0.00,,,0.15,WUHU216DAVISVP2,2013-08-18 16:01:00,
2013-08-18 12:07:00,71.6,67.5,30.17,West,272,1.5,4.0,87,0.00,,,0.15,WUHU216DAVISVP2,2013-08-18 16:07:00,
2013-08-18 12:12:00,71.3,66.9,30.17,West,264,1.1,3.0,86,0.00,,,0.15,WUHU216DAVISVP2,2013-08-18 16:12:00,
2013-08-18 12:17:00,71.1,67.0,30.17,WNW,294,1.5,3.0,87,0.00,,,0.15,WUHU216DAVISVP2,2013-08-18 16:17:00,
2013-08-18 12:22:00,71.1,67.4,30.17,West,277,1.2,3.0,88,0.00,,,0.15,WUHU216DAVISVP2,2013-08-18 16:22:00,
2013-08-18 12:27:00,71.1,68.0,30.17,WNW,283,1.4,3.0,90,0.00,,,0.15,WUHU216DAVISVP2,2013-08-18 16:27:00,
2013-08-18 12:31:00,71.2,68.1,30.17,WNW,282,1.3,3.0,90,0.00,,,0.15,WUHU216DAVISVP2,2013-08-18 16:31:00,
2013-08-18 12:36:00,71.4,67.7,30.17,WNW,297,2.7,5.0,88,0.00,,,0.15,WUHU216DAVISVP2,2013-08-18 16:36:00,
2013-08-18 12:42:00,71.4,67.7,30.16,West,263,1.7,5.0,88,0.00,,,0.15,WUHU216DAVISVP2,2013-08-18 16:42:00,
2013-08-18 12:46:00,71.5,68.1,30.16,West,275,1.4,5.0,89,0.00,,,0.15,WUHU216DAVISVP2,2013-08-18 16:46:00,
2013-08-18 12:52:00,71.4,68.0,30.16,West,272,2.0,5.0,89,0.00,,,0.15,WUHU216DAVISVP2,2013-08-18 16:52:00,
2013-08-18 12:56:00,71.5,68.4,30.16,WNW,285,3.0,4.0,90,0.00,,,0.15,WUHU216DAVISVP2,2013-08-18 16:56:00,
2013-08-18 13:01:00,71.6,68.5,30.16,WNW,295,1.6,4.0,90,0.00,,,0.15,WUHU216DAVISVP2,2013-08-18 17:01:00,
2013-08-18 13:06:00,71.5,67.8,30.16,WNW,297,1.4,4.0,88,0.00,,,0.15,WUHU216DAVISVP2,2013-08-18 17:06:00,
2013-08-18 13:11:00,71.6,68.8,30.16,NW,311,1.1,4.0,91,0.00,,,0.15,WUHU216DAVISVP2,2013-08-18 17:11:00,
2013-08-18 13:16:00,71.7,68.6,30.16,West,268,1.1,4.0,90,0.00,,,0.15,WUHU216DAVISVP2,2013-08-18 17:16:00,
2013-08-18 13:22:00,71.5,68.1,30.16,WNW,293,1.8,4.0,89,0.00,,,0.15,WUHU216DAVISVP2,2013-08-18 17:22:00,
2013-08-18 13:26:00,71.2,68.1,30.16,WNW,283,2.6,5.0,90,0.00,,,0.15,WUHU216DAVISVP2,2013-08-18 17:26:00,
2013-08-18 13:32:00,70.9,67.8,30.16,West,269,2.0,5.0,90,0.00,,,0.15,WUHU216DAVISVP2,2013-08-18 17:32:00,
2013-08-18 13:37:00,71.0,67.6,30.16,West,265,2.1,5.0,89,0.00,,,0.15,WUHU216DAVISVP2,2013-08-18 17:37:00,
2013-08-18 13:41:00,71.2,67.5,30.16,South,191,3.0,5.0,88,0.00,,,0.15,WUHU216DAVISVP2,2013-08-18 17:41:00,
2013-08-18 13:47:00,71.3,67.6,30.16,WNW,284,3.0,5.0,88,0.00,,,0.15,WUHU216DAVISVP2,2013-08-18 17:47:00,
2013-08-18 13:51:00,71.5,67.4,30.16,West,270,2.5,5.0,87,0.00,,,0.15,WUHU216DAVISVP2,2013-08-18 17:51:00,
2013-08-18 13:56:00,71.6,67.5,30.16,WNW,291,2.2,6.0,87,0.00,,,0.15,WUHU216DAVISVP2,2013-08-18 17:56:00,
2013-08-18 14:01:00,71.6,67.5,30.16,West,271,3.0,6.0,87,0.00,,,0.15,WUHU216DAVISVP2,2013-08-18 18:01:00,
2013-08-18 14:06:00,71.6,67.5,30.16,WNW,288,3.0,6.0,87,0.00,,,0.15,WUHU216DAVISVP2,2013-08-18 18:06:00,
2013-08-18 14:12:00,71.7,68.0,30.16,WSW,252,1.8,6.0,88,0.00,,,0.15,WUHU216DAVISVP2,2013-08-18 18:12:00,
2013-08-18 14:17:00,71.8,67.7,30.15,West,281,1.4,4.0,87,0.00,,,0.15,WUHU216DAVISVP2,2013-08-18 18:17:00,
2013-08-18 14:22:00,72.0,67.6,30.15,WSW,250,1.3,4.0,86,0.00,,,0.15,WUHU216DAVISVP2,2013-08-18 18:22:00,
2013-08-18 14:27:00,72.2,67.8,30.15,WSW,254,1.2,4.0,86,0.00,,,0.15,WUHU216DAVISVP2,2013-08-18 18:27:00,
2013-08-18 14:32:00,72.1,68.4,30.15,West,274,1.0,3.0,88,0.00,,,0.15,WUHU216DAVISVP2,2013-08-18 18:32:00,
2013-08-18 14:37:00,72.2,68.4,30.15,NW,309,1.2,3.0,88,0.00,,,0.15,WUHU216DAVISVP2,2013-08-18 18:37:00,
2013-08-18 14:42:00,72.3,68.5,30.15,West,261,1.0,3.0,88,0.00,,,0.15,WUHU216DAVISVP2,2013-08-18 18:42:00,
2013-08-18 14:47:00,72.3,67.9,30.15,SSW,212,2.0,3.0,86,0.00,,,0.15,WUHU216DAVISVP2,2013-08-18 18:47:00,
2013-08-18 14:52:00,72.4,68.0,30.15,NW,317,1.2,3.0,86,0.00,,,0.15,WUHU216DAVISVP2,2013-08-18 18:52:00,
2013-08-18 14:57:00,72.6,67.9,30.15,West,268,1.5,4.0,85,0.00,,,0.15,WUHU216DAVISVP2,2013-08-18 18:57:00,
2013-08-18 15:02:00,72.8,68.7,30.15,WNW,283,1.2,4.0,87,0.00,,,0.15,WUHU216DAVISVP2,2013-08-18 19:02:00,
2013-08-18 15:07:00,73.0,68.3,30.15,WNW,292,2.0,5.0,85,0.00,,,0.15,WUHU216DAVISVP2,2013-08-18 19:07:00,
2013-08-18 15:12:00,72.9,67.8,30.14,NW,311,1.9,5.0,84,0.00,,,0.15,WUHU216DAVISVP2,2013-08-18 19:12:00,
2013-08-18 15:17:00,73.1,68.4,30.14,West,268,1.2,4.0,85,0.00,,,0.15,WUHU216DAVISVP2,2013-08-18 19:17:00,
2013-08-18 15:21:00,73.3,68.2,30.14,West,275,1.6,5.0,84,0.00,,,0.15,WUHU216DAVISVP2,2013-08-18 19:21:00,
2013-08-18 15:26:00,74.0,68.9,30.13,WNW,298,2.0,5.0,84,0.00,,,0.15,WUHU216DAVISVP2,2013-08-18 19:26:00,
2013-08-18 15:31:00,74.3,68.5,30.13,NW,322,1.5,4.0,82,0.00,,,0.15,WUHU216DAVISVP2,2013-08-18 19:31:00,
2013-08-18 15:36:00,74.6,68.8,30.13,West,266,1.6,4.0,82,0.00,,,0.15,WUHU216DAVISVP2,2013-08-18 19:36:00,
2013-08-18 15:41:00,74.5,68.4,30.13,ESE,104,1.3,3.0,81,0.00,,,0.15,WUHU216DAVISVP2,2013-08-18 19:41:00,
2013-08-18 15:46:00,74.5,69.1,30.13,West,277,1.2,3.0,83,0.00,,,0.15,WUHU216DAVISVP2,2013-08-18 19:46:00,
2013-08-18 15:51:00,74.2,68.8,30.13,NW,305,1.1,3.0,83,0.00,,,0.15,WUHU216DAVISVP2,2013-08-18 19:51:00,
2013-08-18 15:56:00,74.0,68.6,30.13,NW,307,1.0,3.0,83,0.00,,,0.15,WUHU216DAVISVP2,2013-08-18 19:56:00,
2013-08-18 16:01:00,74.1,68.7,30.13,WNW,290,2.0,3.0,83,0.00,,,0.15,WUHU216DAVISVP2,2013-08-18 20:01:00,
2013-08-18 16:07:00,73.6,68.2,30.12,WNW,284,1.3,3.0,83,0.00,,,0.15,WUHU216DAVISVP2,2013-08-18 20:07:00,
2013-08-18 16:12:00,73.3,68.6,30.12,West,274,1.0,3.0,85,0.01,,,0.16,WUHU216DAVISVP2,2013-08-18 20:12:00,
2013-08-18 16:17:00,72.5,68.4,30.12,WNW,293,2.0,3.0,87,0.05,,,0.20,WUHU216DAVISVP2,2013-08-18 20:17:00,
2013-08-18 16:21:00,71.6,68.5,30.12,WNW,292,1.0,3.0,90,0.06,,,0.21,WUHU216DAVISVP2,2013-08-18 20:21:00,
2013-08-18 16:26:00,71.4,68.6,30.12,WNW,302,0.0,3.0,91,0.06,,,0.21,WUHU216DAVISVP2,2013-08-18 20:26:00,
2013-08-18 16:31:00,71.5,68.7,30.12,WNW,302,1.0,3.0,91,0.06,,,0.21,WUHU216DAVISVP2,2013-08-18 20:31:00,
2013-08-18 16:36:00,71.5,68.7,30.12,WNW,302,1.0,1.0,91,0.06,,,0.21,WUHU216DAVISVP2,2013-08-18 20:36:00,
2013-08-18 16:41:00,71.6,69.1,30.12,WNW,285,2.0,2.0,92,0.06,,,0.21,WUHU216DAVISVP2,2013-08-18 20:41:00,
2013-08-18 16:47:00,71.7,68.9,30.12,WNW,300,1.2,2.0,91,0.06,,,0.21,WUHU216DAVISVP2,2013-08-18 20:47:00,
2013-08-18 16:52:00,71.6,68.8,30.12,NNW,333,1.0,2.0,91,0.06,,,0.21,WUHU216DAVISVP2,2013-08-18 20:52:00,
2013-08-18 16:57:00,71.5,68.7,30.12,ENE,59,1.1,2.0,91,0.06,,,0.21,WUHU216DAVISVP2,2013-08-18 20:57:00,
2013-08-18 17:02:00,71.5,68.7,30.12,ENE,77,2.0,4.0,91,0.06,,,0.21,WUHU216DAVISVP2,2013-08-18 21:02:00,
2013-08-18 17:07:00,71.8,69.3,30.12,ENE,77,1.0,4.0,92,0.06,,,0.21,WUHU216DAVISVP2,2013-08-18 21:07:00,
2013-08-18 17:12:00,71.8,68.7,30.12,ENE,77,0.0,3.0,90,0.05,,,0.21,WUHU216DAVISVP2,2013-08-18 21:12:00,
2013-08-18 17:17:00,72.0,68.9,30.12,ENE,77,0.0,3.0,90,0.01,,,0.21,WUHU216DAVISVP2,2013-08-18 21:17:00,
2013-08-18 17:22:00,72.0,68.9,30.12,ENE,77,0.0,1.0,90,0.00,,,0.21,WUHU216DAVISVP2,2013-08-18 21:22:00,
2013-08-18 17:27:00,72.0,68.6,30.12,North,3,1.0,1.0,89,0.00,,,0.21,WUHU216DAVISVP2,2013-08-18 21:27:00,
2013-08-18 17:32:00,71.9,68.5,30.12,WNW,289,0.0,1.0,89,0.00,,,0.21,WUHU216DAVISVP2,2013-08-18 21:32:00,
2013-08-18 17:37:00,72.0,68.9,30.12,WNW,291,0.0,1.0,90,0.00,,,0.21,WUHU216DAVISVP2,2013-08-18 21:37:00,
2013-08-18 17:42:00,71.9,68.8,30.12,NW,315,1.0,1.0,90,0.00,,,0.21,WUHU216DAVISVP2,2013-08-18 21:42:00,
2013-08-18 17:47:00,71.9,69.1,30.12,NW,315,0.0,1.0,91,0.00,,,0.21,WUHU216DAVISVP2,2013-08-18 21:47:00,
2013-08-18 17:52:00,71.8,68.7,30.12,WNW,282,1.0,1.0,90,0.00,,,0.21,WUHU216DAVISVP2,2013-08-18 21:52:00,
2013-08-18 17:57:00,71.6,68.8,30.12,WNW,290,0.0,1.0,91,0.00,,,0.21,WUHU216DAVISVP2,2013-08-18 21:57:00,
2013-08-18 18:02:00,71.7,68.6,30.12,NE,37,1.0,1.0,90,0.00,,,0.21,WUHU216DAVISVP2,2013-08-18 22:02:00,
2013-08-18 18:07:00,71.6,68.2,30.12,NE,39,1.0,1.0,89,0.00,,,0.21,WUHU216DAVISVP2,2013-08-18 22:07:00,
2013-08-18 18:12:00,71.8,68.7,30.12,NE,39,0.0,1.0,90,0.00,,,0.21,WUHU216DAVISVP2,2013-08-18 22:12:00,
2013-08-18 18:17:00,72.0,68.9,30.12,NE,39,0.0,1.0,90,0.00,,,0.21,WUHU216DAVISVP2,2013-08-18 22:17:00,
2013-08-18 18:22:00,72.1,69.0,30.11,NE,39,0.0,1.0,90,0.00,,,0.21,WUHU216DAVISVP2,2013-08-18 22:22:00,
2013-08-18 18:27:00,72.4,69.3,30.11,NE,39,0.0,1.0,90,0.00,,,0.21,WUHU216DAVISVP2,2013-08-18 22:27:00,
2013-08-18 18:32:00,72.9,69.5,30.11,ENE,57,1.3,2.0,89,0.00,,,0.21,WUHU216DAVISVP2,2013-08-18 22:32:00,
2013-08-18 18:37:00,72.9,69.1,30.11,ENE,75,1.7,4.0,88,0.00,,,0.21,WUHU216DAVISVP2,2013-08-18 22:37:00,
2013-08-18 18:42:00,72.4,68.6,30.11,East,79,3.0,5.0,88,0.00,,,0.21,WUHU216DAVISVP2,2013-08-18 22:42:00,
2013-08-18 18:47:00,71.9,68.5,30.11,ENE,78,1.3,5.0,89,0.00,,,0.21,WUHU216DAVISVP2,2013-08-18 22:47:00,
2013-08-18 18:52:00,71.7,68.6,30.11,ENE,74,0.0,5.0,90,0.00,,,0.21,WUHU216DAVISVP2,2013-08-18 22:52:00,
2013-08-18 18:57:00,71.6,68.5,30.11,East,86,1.0,4.0,90,0.00,,,0.21,WUHU216DAVISVP2,2013-08-18 22:57:00,
2013-08-18 19:02:00,71.5,68.1,30.11,East,82,2.0,4.0,89,0.00,,,0.21,WUHU216DAVISVP2,2013-08-18 23:02:00,
2013-08-18 19:07:00,71.2,67.8,30.11,East,83,2.4,5.0,89,0.00,,,0.21,WUHU216DAVISVP2,2013-08-18 23:07:00,
2013-08-18 19:12:00,71.0,67.9,30.11,ENE,78,1.9,5.0,90,0.00,,,0.21,WUHU216DAVISVP2,2013-08-18 23:12:00,
2013-08-18 19:17:00,71.4,68.6,30.11,ESE,105,1.0,4.0,91,0.00,,,0.21,WUHU216DAVISVP2,2013-08-18 23:17:00,
2013-08-18 19:22:00,71.6,68.2,30.10,ENE,63,1.0,4.0,89,0.00,,,0.21,WUHU216DAVISVP2,2013-08-18 23:22:00,
2013-08-18 19:27:00,71.6,68.2,30.10,ENE,76,2.4,5.0,89,0.00,,,0.21,WUHU216DAVISVP2,2013-08-18 23:27:00,
2013-08-18 19:32:00,71.2,67.8,30.10,ESE,120,3.0,5.0,89,0.00,,,0.21,WUHU216DAVISVP2,2013-08-18 23:32:00,
2013-08-18 19:37:00,70.9,67.8,30.10,East,98,1.2,5.0,90,0.00,,,0.21,WUHU216DAVISVP2,2013-08-18 23:37:00,
2013-08-18 19:42:00,70.6,67.5,30.10,East,87,1.5,4.0,90,0.00,,,0.21,WUHU216DAVISVP2,2013-08-18 23:42:00,
2013-08-18 19:47:00,70.3,67.2,30.10,ENE,70,2.0,4.0,90,0.00,,,0.21,WUHU216DAVISVP2,2013-08-18 23:47:00,
2013-08-18 19:52:00,70.2,67.4,30.10,ENE,63,1.0,3.0,91,0.00,,,0.21,WUHU216DAVISVP2,2013-08-18 23:52:00,
2013-08-18 19:57:00,69.9,67.1,30.10,ESE,117,0.0,3.0,91,0.00,,,0.21,WUHU216DAVISVP2,2013-08-18 23:57:00,
2013-08-18 20:02:00,69.7,66.9,30.10,WNW,290,1.0,2.0,91,0.00,,,0.21,WUHU216DAVISVP2,2013-08-19 00:02:00,
2013-08-18 20:07:00,69.5,67.0,30.11,WNW,290,1.0,2.0,92,0.00,,,0.21,WUHU216DAVISVP2,2013-08-19 00:07:00,
2013-08-18 20:12:00,69.2,67.1,30.11,WNW,290,0.0,2.0,93,0.00,,,0.21,WUHU216DAVISVP2,2013-08-19 00:12:00,
2013-08-18 20:17:00,69.0,66.6,30.11,ESE,113,1.3,3.0,92,0.00,,,0.21,WUHU216DAVISVP2,2013-08-19 00:17:00,
2013-08-18 20:22:00,68.9,66.8,30.11,ESE,117,0.0,3.0,93,0.00,,,0.21,WUHU216DAVISVP2,2013-08-19 00:22:00,
2013-08-18 20:27:00,68.8,66.7,30.11,ESE,117,0.0,2.0,93,0.00,,,0.21,WUHU216DAVISVP2,2013-08-19 00:27:00,
2013-08-18 20:32:00,68.9,66.8,30.11,ESE,117,0.0,2.0,93,0.00,,,0.21,WUHU216DAVISVP2,2013-08-19 00:32:00,
2013-08-18 20:37:00,68.8,66.7,30.11,ENE,61,1.0,1.0,93,0.00,,,0.21,WUHU216DAVISVP2,2013-08-19 00:37:00,
2013-08-18 20:42:00,68.6,66.8,30.10,ENE,61,0.0,1.0,94,0.00,,,0.21,WUHU216DAVISVP2,2013-08-19 00:42:00,
2013-08-18 20:47:00,68.4,66.6,30.11,ENE,60,0.0,1.0,94,0.00,,,0.21,WUHU216DAVISVP2,2013-08-19 00:47:00,
2013-08-18 20:52:00,68.3,66.5,30.11,ENE,61,0.0,1.0,94,0.00,,,0.21,WUHU216DAVISVP2,2013-08-19 00:52:00,
2013-08-18 20:57:00,68.1,66.3,30.11,ENE,61,0.0,0.0,94,0.00,,,0.21,WUHU216DAVISVP2,2013-08-19 00:57:00,
2013-08-18 21:02:00,67.9,66.1,30.11,ENE,60,0.0,0.0,94,0.00,,,0.21,WUHU216DAVISVP2,2013-08-19 01:02:00,
2013-08-18 21:07:00,67.8,66.3,30.11,ENE,60,0.0,0.0,95,0.00,,,0.21,WUHU216DAVISVP2,2013-08-19 01:07:00,
2013-08-18 21:12:00,67.8,66.3,30.11,ENE,60,0.0,0.0,95,0.00,,,0.21,WUHU216DAVISVP2,2013-08-19 01:12:00,
2013-08-18 21:17:00,67.7,66.2,30.11,ENE,60,0.0,0.0,95,0.00,,,0.21,WUHU216DAVISVP2,2013-08-19 01:17:00,
2013-08-18 21:22:00,67.7,66.2,30.11,ENE,61,0.0,0.0,95,0.00,,,0.21,WUHU216DAVISVP2,2013-08-19 01:22:00,
2013-08-18 21:27:00,67.6,66.1,30.11,ENE,61,0.0,0.0,95,0.00,,,0.21,WUHU216DAVISVP2,2013-08-19 01:27:00,
2013-08-18 21:32:00,67.5,66.0,30.11,ENE,61,0.0,0.0,95,0.00,,,0.21,WUHU216DAVISVP2,2013-08-19 01:32:00,
2013-08-18 21:37:00,67.4,65.9,30.11,ENE,61,0.0,0.0,95,0.00,,,0.21,WUHU216DAVISVP2,2013-08-19 01:37:00,
2013-08-18 21:42:00,67.4,65.9,30.12,ENE,60,0.0,0.0,95,0.00,,,0.21,WUHU216DAVISVP2,2013-08-19 01:42:00,
2013-08-18 21:47:00,67.3,65.8,30.12,ENE,61,0.0,0.0,95,0.00,,,0.21,WUHU216DAVISVP2,2013-08-19 01:47:00,
2013-08-18 21:52:00,67.2,65.7,30.12,ENE,61,0.0,0.0,95,0.00,,,0.21,WUHU216DAVISVP2,2013-08-19 01:52:00,
2013-08-18 21:57:00,67.0,65.5,30.12,ENE,60,0.0,0.0,95,0.00,,,0.21,WUHU216DAVISVP2,2013-08-19 01:57:00,
2013-08-18 22:02:00,66.9,65.4,30.12,ENE,60,0.0,0.0,95,0.00,,,0.21,WUHU216DAVISVP2,2013-08-19 02:02:00,
2013-08-18 22:07:00,66.9,65.4,30.12,ENE,61,0.0,0.0,95,0.00,,,0.21,WUHU216DAVISVP2,2013-08-19 02:07:00,
2013-08-18 22:12:00,66.8,65.3,30.11,ENE,61,0.0,0.0,95,0.00,,,0.21,WUHU216DAVISVP2,2013-08-19 02:12:00,
2013-08-18 22:17:00,66.7,65.2,30.12,ENE,61,0.0,0.0,95,0.00,,,0.21,WUHU216DAVISVP2,2013-08-19 02:17:00,
2013-08-18 22:22:00,66.6,65.4,30.12,ENE,61,0.0,0.0,96,0.00,,,0.21,WUHU216DAVISVP2,2013-08-19 02:22:00,
2013-08-18 22:27:00,66.5,65.0,30.12,ENE,61,0.0,0.0,95,0.00,,,0.21,WUHU216DAVISVP2,2013-08-19 02:27:00,
2013-08-18 22:32:00,66.4,65.2,30.12,ENE,60,0.0,0.0,96,0.00,,,0.21,WUHU216DAVISVP2,2013-08-19 02:32:00,
2013-08-18 22:37:00,66.4,65.2,30.12,ENE,60,0.0,0.0,96,0.00,,,0.21,WUHU216DAVISVP2,2013-08-19 02:37:00,
2013-08-18 22:42:00,66.3,65.1,30.12,ENE,60,0.0,0.0,96,0.01,,,0.22,WUHU216DAVISVP2,2013-08-19 02:42:00,
2013-08-18 22:47:00,66.3,65.1,30.12,ENE,61,0.0,0.0,96,0.01,,,0.22,WUHU216DAVISVP2,2013-08-19 02:47:00,
2013-08-18 22:52:00,66.2,65.0,30.12,ENE,60,0.0,0.0,96,0.01,,,0.22,WUHU216DAVISVP2,2013-08-19 02:52:00,
2013-08-18 22:57:00,66.3,65.1,30.12,ENE,61,0.0,0.0,96,0.01,,,0.22,WUHU216DAVISVP2,2013-08-19 02:57:00,
2013-08-18 23:02:00,66.3,65.1,30.13,ENE,61,0.0,0.0,96,0.01,,,0.22,WUHU216DAVISVP2,2013-08-19 03:02:00,
2013-08-18 23:07:00,66.3,65.1,30.12,ENE,60,0.0,0.0,96,0.01,,,0.22,WUHU216DAVISVP2,2013-08-19 03:07:00,
2013-08-18 23:12:00,66.4,65.2,30.12,ENE,61,0.0,0.0,96,0.01,,,0.22,WUHU216DAVISVP2,2013-08-19 03:12:00,
2013-08-18 23:17:00,66.4,65.2,30.12,ENE,61,0.0,0.0,96,0.01,,,0.22,WUHU216DAVISVP2,2013-08-19 03:17:00,
2013-08-18 23:22:00,66.3,65.1,30.12,ENE,60,0.0,0.0,96,0.01,,,0.22,WUHU216DAVISVP2,2013-08-19 03:22:00,
2013-08-18 23:27:00,66.3,65.1,30.12,ENE,60,0.0,0.0,96,0.01,,,0.22,WUHU216DAVISVP2,2013-08-19 03:27:00,
2013-08-18 23:32:00,66.2,65.0,30.12,ENE,61,0.0,0.0,96,0.01,,,0.22,WUHU216DAVISVP2,2013-08-19 03:32:00,
2013-08-18 23:37:00,66.3,65.1,30.12,ENE,61,0.0,0.0,96,0.01,,,0.22,WUHU216DAVISVP2,2013-08-19 03:37:00,
2013-08-18 23:42:00,66.3,65.1,30.12,ENE,61,0.0,0.0,96,0.00,,,0.22,WUHU216DAVISVP2,2013-08-19 03:42:00,
2013-08-18 23:47:00,66.4,65.2,30.11,ENE,61,0.0,0.0,96,0.00,,,0.22,WUHU216DAVISVP2,2013-08-19 03:47:00,
2013-08-18 23:52:00,66.3,65.1,30.11,ENE,60,0.0,0.0,96,0.00,,,0.22,WUHU216DAVISVP2,2013-08-19 03:52:00,
2013-08-18 23:57:00,66.3,65.1,30.11,ENE,60,0.0,0.0,96,0.00,,,0.22,WUHU216DAVISVP2,2013-08-19 03:57:00,